Time;durP1;ratioP1;P1;durP2;ratioP2;P2;SDS_P1;SDS_P2;PMS_P1;PMS_P2;Temp;Humidity;BMP_temperature;BMP_pressure;BME280_temperature;BME280_humidity;BME280_pressure;Samples;Min_cycle;Max_cycle;Signal;HPM_P1;HPM_P2
2024/01/15 00:00:11;;;;;;;;;;;6.70;57.80;;;5.07;61.62;99043.50;12247488;19;19940;-89
2024/01/15 00:04:12;;;;;;;;;;;6.70;57.70;;;5.05;61.84;99029.88;12246516;19;19978;-89
2024/01/15 00:08:14;;;;;;;;;;;6.70;57.70;;;5.05;61.87;99018.66;12246135;19;20419;-89
2024/01/15 00:12:15;;;;;;;;;;;6.70;57.70;;;5.05;61.87;99018.66;12246061;19;19918;-89
2024/01/15 00:16:16;;;;;;;;;;;6.70;58.10;;;4.98;61.85;98996.69;12245099;19;19942;-89
2024/01/15 00:20:18;;;;;;;;;;;6.70;57.80;;;5.03;61.63;98998.06;12244463;19;19919;-89
2024/01/15 00:24:20;;;;;;;;;;;6.70;57.70;;;4.96;61.84;98988.19;12245470;19;19954;-89
2024/01/15 00:28:21;;;;;;;;;;;6.70;57.70;;;4.95;61.66;98974.44;12240785;19;19917;-88
2024/01/15 00:32:22;;;;;;;;;;;6.60;57.60;;;4.93;61.54;98968.50;12243891;19;19936;-88
2024/01/15 00:36:24;;;;;;;;;;;6.60;57.60;;;4.96;61.67;98967.50;12242406;19;19919;-89
2024/01/15 00:40:25;;;;;;;;;;;6.60;57.70;;;4.80;61.78;98942.53;12244709;19;19938;-89
2024/01/15 00:44:27;;;;;;;;;;;6.60;57.80;;;4.79;61.83;98935.72;12242804;19;20004;-89
2024/01/15 00:48:28;;;;;;;;;;;6.70;57.80;;;4.82;61.64;98940.72;12240742;19;19926;-89
2024/01/15 00:52:30;;;;;;;;;;;6.80;57.80;;;4.73;61.72;98925.75;12244060;19;20308;-89
2024/01/15 00:56:31;;;;;;;;;;;6.50;57.70;;;4.85;61.95;98931.94;12243488;19;19942;-88
2024/01/15 01:00:33;;;;;;;;;;;6.50;57.70;;;4.90;61.71;98936.84;12242717;19;20326;-89
2024/01/15 01:04:34;;;;;;;;;;;6.50;57.70;;;4.84;61.81;98923.34;12243518;19;19930;-89
2024/01/15 01:08:36;;;;;;;;;;;6.50;57.70;;;4.59;61.69;98880.06;12241741;19;19923;-89
2024/01/15 01:12:37;;;;;;;;;;;6.50;57.70;;;4.80;61.80;98911.50;12241580;19;19918;-89
2024/01/15 01:16:38;;;;;;;;;;;6.50;57.80;;;4.83;61.83;98911.34;12240637;19;19919;-89
2024/01/15 01:20:40;;;;;;;;;;;6.50;57.80;;;4.88;61.80;98927.41;12242973;19;19919;-89
2024/01/15 01:24:41;;;;;;;;;;;6.70;57.80;;;4.77;61.60;98901.38;12240864;19;19953;-89
2024/01/15 01:28:43;;;;;;;;;;;6.40;57.70;;;4.80;61.66;98915.88;12238181;19;19932;-89
2024/01/15 01:32:45;;;;;;;;;;;6.40;57.70;;;4.80;61.72;98906.34;12242472;19;19919;-89
2024/01/15 01:36:46;;;;;;;;;;;6.40;57.70;;;4.58;61.83;98887.91;12245427;19;19919;-89
2024/01/15 01:40:48;;;;;;;;;;;6.40;57.70;;;4.77;61.87;98922.06;12254458;19;20337;-89
2024/01/15 01:44:49;;;;;;;;;;;6.70;57.90;;;4.49;61.78;98875.53;12256678;19;19946;-89
2024/01/15 01:48:51;;;;;;;;;;;6.40;57.80;;;4.67;61.83;98915.75;12248713;19;19927;-89
2024/01/15 01:52:52;;;;;;;;;;;6.30;57.70;;;4.63;61.83;98909.13;12252545;19;19930;-89
2024/01/15 01:56:54;;;;;;;;;;;6.30;57.70;;;4.61;61.64;98906.63;12250247;19;19921;-89
2024/01/15 02:00:56;;;;;;;;;;;6.30;57.80;;;4.56;61.99;98894.91;12252896;19;19915;-89
2024/01/15 02:04:58;;;;;;;;;;;6.30;57.80;;;4.58;61.83;98891.31;12251481;19;19930;-89
2024/01/15 02:08:59;;;;;;;;;;;6.30;57.80;;;4.36;61.77;98873.66;12248549;19;20326;-89
2024/01/15 02:13:01;;;;;;;;;;;6.30;57.80;;;4.53;61.79;98898.50;12249907;19;20259;-89
2024/01/15 02:17:03;;;;;;;;;;;6.20;57.90;;;4.49;61.76;98897.03;12250453;19;19915;-89
2024/01/15 02:21:04;;;;;;;;;;;6.20;57.90;;;4.57;61.89;98905.16;12251792;19;19925;-88
2024/01/15 02:25:06;;;;;;;;;;;6.40;57.90;;;4.51;61.78;98900.38;12253375;19;19918;-89
2024/01/15 02:29:08;;;;;;;;;;;6.20;57.80;;;4.58;61.77;98916.31;12252114;19;19938;-89
2024/01/15 02:33:11;;;;;;;;;;;6.40;58.00;;;4.59;61.76;98907.63;12251461;19;19971;-88
2024/01/15 02:37:12;;;;;;;;;;;6.20;57.80;;;4.59;61.85;98911.09;12249457;19;19931;-90
2024/01/15 02:41:14;;;;;;;;;;;6.10;57.80;;;4.33;61.68;98876.44;12251825;19;19923;-89
2024/01/15 02:45:15;;;;;;;;;;;6.20;57.80;;;4.51;61.93;98899.50;12252040;19;19927;-88
2024/01/15 02:49:16;;;;;;;;;;;6.30;57.90;;;4.44;61.76;98883.56;12247873;19;20336;-88
2024/01/15 02:53:18;;;;;;;;;;;6.10;57.70;;;4.48;61.74;98879.03;12247983;19;20235;-88
2024/01/15 02:57:19;;;;;;;;;;;6.10;57.70;;;4.23;61.97;98841.72;12238296;19;19990;-88
2024/01/15 03:01:21;;;;;;;;;;;6.10;57.70;;;4.41;61.74;98863.91;12251861;19;19923;-89
2024/01/15 03:05:23;;;;;;;;;;;6.10;57.70;;;4.20;61.76;98834.16;12249175;19;19922;-88
2024/01/15 03:09:25;;;;;;;;;;;6.10;57.70;;;4.39;61.67;98870.06;12249368;19;19918;-88
2024/01/15 03:13:26;;;;;;;;;;;6.10;57.70;;;4.34;61.82;98869.50;12248646;19;20239;-89
2024/01/15 03:17:27;;;;;;;;;;;6.10;57.70;;;4.38;61.91;98877.00;12248014;19;19915;-89
2024/01/15 03:21:29;;;;;;;;;;;6.10;57.60;;;4.32;61.86;98859.28;12250815;19;19927;-88
2024/01/15 03:25:30;;;;;;;;;;;6.10;57.60;;;4.50;61.76;98882.34;12248734;19;19930;-89
2024/01/15 03:29:32;;;;;;;;;;;6.10;57.60;;;4.48;61.81;98868.69;12249232;19;20574;-89
2024/01/15 03:33:34;;;;;;;;;;;6.10;57.50;;;4.23;61.91;98828.81;12248378;19;19915;-88
2024/01/15 03:37:35;;;;;;;;;;;6.10;57.50;;;4.54;61.91;98865.75;12246365;19;20245;-88
2024/01/15 03:41:37;;;;;;;;;;;6.10;57.50;;;4.38;61.88;98840.81;12247727;19;19923;-89
2024/01/15 03:45:38;;;;;;;;;;;6.10;57.50;;;4.16;61.95;98809.47;12246246;19;19922;-89
2024/01/15 03:49:40;;;;;;;;;;;6.10;57.50;;;4.40;61.87;98846.75;12245262;19;19926;-89
2024/01/15 03:53:41;;;;;;;;;;;6.10;57.50;;;4.29;61.87;98817.28;12245790;19;19927;-88
2024/01/15 03:57:42;;;;;;;;;;;6.30;57.50;;;4.22;61.77;98809.09;12243495;19;19919;-89
2024/01/15 04:01:50;;;;;;;;;;;6.10;57.40;;;4.37;61.77;98836.56;12245196;19;19936;-87
2024/01/15 04:05:52;;;;;;;;;;;6.10;57.40;;;4.49;62.00;98840.19;12247771;19;19931;-86
2024/01/15 04:09:53;;;;;;;;;;;6.10;57.40;;;4.46;61.91;98830.03;12245899;19;19915;-87
2024/01/15 04:13:55;;;;;;;;;;;6.30;57.40;;;4.26;61.93;98779.53;12245821;19;19911;-86
2024/01/15 04:17:56;;;;;;;;;;;6.20;57.40;;;4.40;61.88;98797.66;12241908;19;19938;-87
2024/01/15 04:21:58;;;;;;;;;;;6.20;57.40;;;4.47;61.91;98805.00;12246983;19;19914;-87
2024/01/15 04:25:59;;;;;;;;;;;6.20;57.40;;;4.48;61.79;98810.06;12245476;19;19936;-87
2024/01/15 04:30:01;;;;;;;;;;;6.10;57.30;;;4.43;61.87;98792.28;12246371;19;19910;-87
2024/01/15 04:34:02;;;;;;;;;;;6.10;57.30;;;4.31;61.88;98769.75;12244395;19;20478;-87
2024/01/15 04:38:04;;;;;;;;;;;6.20;57.30;;;4.53;61.76;98800.28;12242912;19;19922;-86
2024/01/15 04:42:05;;;;;;;;;;;6.20;57.30;;;4.42;61.79;98782.03;12246098;19;19911;-86
2024/01/15 04:46:07;;;;;;;;;;;6.10;57.30;;;4.49;61.65;98795.41;12243907;19;19931;-86
2024/01/15 04:50:08;;;;;;;;;;;6.10;57.30;;;4.52;61.82;98798.63;12244515;19;19918;-86
2024/01/15 04:54:11;;;;;;;;;;;6.10;57.30;;;4.53;61.93;98794.28;12240976;19;19906;-86
2024/01/15 04:58:12;;;;;;;;;;;6.10;57.20;;;4.19;61.86;98735.19;12243009;19;19915;-87
2024/01/15 05:02:14;;;;;;;;;;;6.10;57.30;;;4.55;61.84;98784.69;12243583;19;19927;-87
2024/01/15 05:06:15;;;;;;;;;;;6.20;57.30;;;4.26;61.74;98727.88;12243262;19;19922;-86
2024/01/15 05:10:17;;;;;;;;;;;6.10;57.20;;;4.51;61.88;98775.47;12244153;19;19914;-87
2024/01/15 05:14:18;;;;;;;;;;;6.40;57.30;;;4.41;61.78;98760.53;12253067;19;19926;-87
2024/01/15 05:18:20;;;;;;;;;;;6.20;57.20;;;4.44;61.78;98765.50;12253150;19;19919;-87
2024/01/15 05:22:24;;;;;;;;;;;6.30;57.20;;;4.58;61.90;98784.50;12257009;19;19998;-87
2024/01/15 05:26:26;;;;;;;;;;;6.20;57.10;;;4.50;61.68;98781.56;12254660;19;20341;-86
2024/01/15 05:30:27;;;;;;;;;;;6.20;57.00;;;4.56;61.73;98778.59;12255452;19;20329;-87
2024/01/15 05:34:29;;;;;;;;;;;6.20;57.10;;;4.56;61.88;98778.59;12249439;19;19921;-86
2024/01/15 05:38:30;;;;;;;;;;;6.20;57.10;;;4.52;61.81;98771.97;12252774;19;19923;-87
2024/01/15 05:42:32;;;;;;;;;;;6.20;57.20;;;4.36;61.68;98741.91;12255412;19;20401;-87
2024/01/15 05:46:33;;;;;;;;;;;6.20;57.20;;;4.57;61.85;98760.41;12254812;19;19915;-86
2024/01/15 05:50:35;;;;;;;;;;;6.20;57.10;;;4.61;61.91;98761.03;12256319;19;19966;-87
2024/01/15 05:54:36;;;;;;;;;;;6.30;57.20;;;4.65;61.72;98762.53;12251587;19;20269;-86
2024/01/15 05:58:38;;;;;;;;;;;6.20;57.20;;;4.39;61.82;98726.19;12251929;19;19915;-88
2024/01/15 06:02:39;;;;;;;;;;;6.50;57.30;;;4.41;61.85;98720.94;12255457;19;19923;-88
2024/01/15 06:06:41;;;;;;;;;;;6.30;57.20;;;4.53;61.84;98748.59;12253864;19;19911;-88
2024/01/15 06:10:42;;;;;;;;;;;6.30;57.20;;;4.42;61.87;98725.19;12256205;19;19930;-88
2024/01/15 06:14:44;;;;;;;;;;;6.30;57.10;;;4.57;61.70;98759.59;12253028;19;20607;-88
2024/01/15 06:18:45;;;;;;;;;;;6.30;57.00;;;4.55;61.82;98748.50;12250140;19;19911;-88
2024/01/15 06:22:47;;;;;;;;;;;6.30;57.10;;;4.54;61.72;98759.78;12254577;19;19929;-88
2024/01/15 06:26:49;;;;;;;;;;;6.30;57.10;;;4.53;61.86;98747.78;12252659;19;20499;-88
2024/01/15 06:30:50;;;;;;;;;;;6.30;57.20;;;4.58;61.88;98753.47;12254177;19;19927;-88
2024/01/15 06:34:51;;;;;;;;;;;6.30;57.20;;;4.66;61.86;98764.19;12250447;19;20365;-88
2024/01/15 06:38:53;;;;;;;;;;;6.30;57.20;;;4.51;61.86;98741.84;12250513;19;19915;-88
2024/01/15 06:42:54;;;;;;;;;;;6.50;57.30;;;4.65;61.81;98771.09;12252537;19;19923;-89
2024/01/15 06:46:57;;;;;;;;;;;6.30;57.20;;;4.39;61.53;98730.53;12254604;19;19919;-85
2024/01/15 06:50:58;;;;;;;;;;;6.60;57.30;;;4.57;61.60;98757.00;12253699;19;19930;-87
2024/01/15 06:55:00;;;;;;;;;;;6.30;57.20;;;4.52;61.80;98746.94;12248053;19;19922;-87
2024/01/15 06:59:01;;;;;;;;;;;6.60;57.30;;;4.68;61.77;98770.09;12246671;19;19926;-87
2024/01/15 07:03:04;;;;;;;;;;;6.30;57.20;;;4.57;61.75;98763.00;12253273;19;19926;-87
2024/01/15 07:07:05;;;;;;;;;;;6.30;57.20;;;4.65;61.60;98775.44;12247548;19;19918;-86
2024/01/15 07:11:07;;;;;;;;;;;6.30;57.20;;;4.58;61.82;98764.66;12250983;19;19922;-86
2024/01/15 07:15:09;;;;;;;;;;;6.30;57.20;;;4.59;61.84;98757.72;12247044;19;19918;-86
2024/01/15 07:19:11;;;;;;;;;;;6.30;57.20;;;4.49;61.78;98739.38;12251745;19;20318;-86
2024/01/15 07:23:12;;;;;;;;;;;6.30;57.20;;;4.47;61.64;98730.88;12248974;19;19919;-86
2024/01/15 07:27:14;;;;;;;;;;;6.60;57.30;;;4.61;61.60;98761.88;12249302;19;20414;-86
2024/01/15 07:31:17;;;;;;;;;;;6.30;57.20;;;4.69;61.82;98765.75;12249808;19;19943;-87
2024/01/15 07:35:18;;;;;;;;;;;6.30;57.20;;;4.72;61.86;98774.13;12243885;19;19926;-88
2024/01/15 07:39:23;;;;;;;;;;;6.40;57.20;;;4.62;61.67;98767.91;12249525;19;19921;-90
2024/01/15 07:43:24;;;;;;;;;;;6.40;57.10;;;4.66;61.72;98772.75;12247492;19;19958;-87
2024/01/15 07:47:27;;;;;;;;;;;6.50;57.10;;;4.65;61.59;98798.72;12248893;19;19919;-87
2024/01/15 07:51:29;;;;;;;;;;;6.40;57.10;;;4.81;61.86;98820.09;12249971;19;19921;-87
2024/01/15 07:55:30;;;;;;;;;;;6.40;57.10;;;4.75;61.89;98804.13;12244952;19;19921;-87
2024/01/15 07:59:32;;;;;;;;;;;6.40;57.10;;;4.68;61.88;98795.94;12248540;19;19915;-87
2024/01/15 08:03:33;;;;;;;;;;;6.80;57.20;;;4.50;61.86;98771.22;12249079;19;20231;-86
2024/01/15 08:07:35;;;;;;;;;;;6.70;57.10;;;4.74;61.73;98794.72;12247677;19;19930;-86
2024/01/15 08:11:40;;;;;;;;;;;6.50;56.90;;;4.80;61.65;98810.66;12248478;19;19925;-86
2024/01/15 08:15:41;;;;;;;;;;;6.50;57.00;;;4.86;61.86;98828.41;12246008;19;20362;-87
2024/01/15 08:19:43;;;;;;;;;;;6.50;57.00;;;4.84;61.67;98814.75;12248930;19;20132;-86
2024/01/15 08:23:45;;;;;;;;;;;6.60;57.00;;;5.01;61.87;98838.72;12246774;19;19940;-87
2024/01/15 08:27:46;;;;;;;;;;;6.60;57.00;;;5.02;61.67;98837.78;12245600;19;20333;-86
2024/01/15 08:31:48;;;;;;;;;;;6.60;56.80;;;4.87;61.58;98804.19;12249398;19;20262;-87
2024/01/15 08:35:50;;;;;;;;;;;6.60;57.00;;;5.03;61.60;98836.88;12249739;19;19918;-86
2024/01/15 08:39:51;;;;;;;;;;;6.70;56.90;;;4.82;61.78;98801.06;12248334;19;19922;-86
2024/01/15 08:43:53;;;;;;;;;;;6.70;57.00;;;5.01;61.57;98820.63;12249576;19;19932;-87
2024/01/15 08:47:54;;;;;;;;;;;6.70;56.90;;;5.09;61.75;98823.53;12257915;19;19925;-86
2024/01/15 08:51:56;;;;;;;;;;;6.70;56.80;;;5.07;61.77;98835.75;12260878;19;19940;-87
2024/01/15 08:55:58;;;;;;;;;;;6.70;56.80;;;5.09;61.56;98839.88;12258803;19;19925;-86
2024/01/15 09:00:00;;;;;;;;;;;6.70;56.80;;;5.02;61.55;98838.63;12258468;19;19919;-87
2024/01/15 09:04:01;;;;;;;;;;;6.70;56.80;;;5.08;61.76;98835.66;12262044;19;19919;-86
2024/01/15 09:08:03;;;;;;;;;;;6.80;56.90;;;4.90;61.74;98808.34;12255698;19;19918;-86
2024/01/15 09:12:05;;;;;;;;;;;6.80;56.60;;;5.05;61.79;98837.59;12260891;19;19922;-87
2024/01/15 09:16:08;;;;;;;;;;;6.80;56.80;;;5.14;61.58;98846.53;12258333;19;19915;-89
2024/01/15 09:20:10;;;;;;;;;;;6.80;56.90;;;5.18;61.56;98856.59;12261474;19;19915;-87
2024/01/15 09:24:11;;;;;;;;;;;6.80;56.90;;;5.09;61.58;98849.41;12258465;19;19907;-88
2024/01/15 09:28:13;;;;;;;;;;;6.80;56.80;;;5.19;61.58;98860.03;12256411;19;19919;-88
2024/01/15 09:32:15;;;;;;;;;;;6.80;56.80;;;5.14;61.57;98862.88;12256668;19;19946;-87
2024/01/15 09:36:17;;;;;;;;;;;6.80;56.80;;;4.91;61.49;98824.69;12258662;19;19915;-89
2024/01/15 09:40:20;;;;;;;;;;;6.80;56.80;;;4.89;61.70;98827.41;12257036;19;19922;-88
2024/01/15 09:44:22;;;;;;;;;;;6.90;56.80;;;5.19;61.79;98881.53;12257039;19;19918;-87
2024/01/15 09:48:23;;;;;;;;;;;7.00;56.90;;;5.16;61.63;98886.06;12248751;19;20256;-88
2024/01/15 09:52:25;;;;;;;;;;;6.90;56.90;;;5.12;61.69;98864.75;12256202;19;20279;-88
2024/01/15 09:56:27;;;;;;;;;;;6.90;56.90;;;5.13;61.54;98866.41;12254999;19;19929;-87
2024/01/15 10:00:31;;;;;;;;;;;6.90;56.90;;;5.15;61.62;98861.94;12256075;19;20401;-87
2024/01/15 10:04:32;;;;;;;;;;;6.90;56.80;;;5.25;61.68;98873.38;12257224;19;19906;-88
2024/01/15 10:08:36;;;;;;;;;;;6.90;56.90;;;5.04;61.71;98831.59;12254187;19;20265;-87
2024/01/15 10:12:38;;;;;;;;;;;6.90;56.90;;;5.24;61.54;98850.22;12256360;19;20326;-88
2024/01/15 10:16:41;;;;;;;;;;;6.90;56.90;;;5.23;61.73;98848.53;12257410;19;19936;-85
2024/01/15 10:20:42;;;;;;;;;;;6.90;56.90;;;5.30;61.59;98876.53;12258577;19;19946;-87
2024/01/15 10:24:45;;;;;;;;;;;7.10;57.00;;;5.03;61.72;98823.94;12257316;19;19921;-88
2024/01/15 10:28:51;;;;;;;;;;;6.90;56.80;;;5.26;61.57;98846.56;12253473;19;20337;-88
2024/01/15 10:33:01;;;;;;;;;;;6.90;56.90;;;5.31;61.62;98854.88;12256473;19;19917;-88
2024/01/15 10:37:02;;;;;;;;;;;7.00;56.90;;;5.16;61.53;98813.63;12256752;19;20337;-88
2024/01/15 10:41:04;;;;;;;;;;;7.00;57.00;;;5.39;61.72;98850.97;12257657;19;19915;-88
2024/01/15 10:45:08;;;;;;;;;;;7.00;56.90;;;5.41;61.64;98839.59;12255514;19;19922;-87
2024/01/15 10:49:11;;;;;;;;;;;7.10;56.90;;;5.17;61.62;98817.88;12256107;19;20353;-88
2024/01/15 10:53:16;;;;;;;;;;;7.10;57.00;;;5.51;61.73;98845.03;12256849;19;19923;-88
2024/01/15 10:57:18;;;;;;;;;;;7.10;56.90;;;5.49;61.59;98839.13;12256726;19;20349;-88
2024/01/15 11:01:20;;;;;;;;;;;7.10;56.90;;;5.49;61.63;98837.34;12255869;19;19923;-88
2024/01/15 11:05:23;;;;;;;;;;;7.10;56.70;;;5.56;61.42;98853.31;12256207;19;19926;-89
2024/01/15 11:09:25;;;;;;;;;;;7.10;56.80;;;5.51;61.51;98830.31;12255404;19;19943;-86
2024/01/15 11:13:32;;;;;;;;;;;7.10;56.70;;;5.57;61.47;98844.63;12251086;19;19942;-86
2024/01/15 11:18:05;;;;;;;;;;;7.10;56.80;;;5.58;61.45;98851.44;12245261;19;19937;-85
2024/01/15 11:22:30;;;;;;;;;;;7.10;56.50;;;5.53;61.52;98853.50;12251131;19;19922;-86
2024/01/15 11:26:40;;;;;;;;;;;7.20;56.60;;;5.63;61.71;98849.41;12245229;19;20816;-86
2024/01/15 11:30:41;;;;;;;;;;;7.20;56.70;;;5.69;61.68;98851.56;12250718;19;20342;-86
2024/01/15 11:34:51;;;;;;;;;;;7.20;56.80;;;5.71;61.45;98857.50;12246712;19;19922;-85
2024/01/15 11:38:52;;;;;;;;;;;7.30;56.80;;;5.70;61.63;98868.78;12247008;19;19931;-86
2024/01/15 11:42:54;;;;;;;;;;;7.30;56.60;;;5.75;61.66;98879.69;12247785;19;19907;-86
2024/01/15 11:47:00;;;;;;;;;;;7.30;56.70;;;5.76;61.43;98878.75;12247334;19;19915;-87
2024/01/15 11:51:02;;;;;;;;;;;7.40;56.80;;;5.72;61.61;98869.50;12247567;19;19919;-86
2024/01/15 11:55:24;;;;;;;;;;;7.30;56.50;;;5.74;61.35;98872.00;12244219;19;19927;-85
2024/01/15 11:59:26;;;;;;;;;;;7.40;56.60;;;5.67;61.50;98866.41;12246258;19;19915;-86
2024/01/15 12:03:27;;;;;;;;;;;7.30;56.60;;;5.72;61.42;98864.31;12246471;19;19921;-86
2024/01/15 12:07:29;;;;;;;;;;;7.40;56.70;;;5.66;61.56;98854.38;12247944;19;19938;-86
2024/01/15 12:11:31;;;;;;;;;;;7.30;56.70;;;5.66;61.45;98877.66;12250486;19;20226;-86
2024/01/15 12:15:33;;;;;;;;;;;7.30;56.70;;;5.58;61.54;98868.75;12241467;19;19923;-86
2024/01/15 12:19:35;;;;;;;;;;;7.30;56.60;;;5.58;61.56;98879.94;12244986;19;20720;-86
2024/01/15 12:23:36;;;;;;;;;;;7.30;56.70;;;5.57;61.35;98900.75;12245708;19;19966;-86
2024/01/15 12:27:38;;;;;;;;;;;7.20;56.60;;;5.49;61.66;98880.53;12243381;19;19926;-86
2024/01/15 12:31:39;;;;;;;;;;;7.20;56.60;;;5.43;61.47;98889.53;12244534;19;19974;-86
2024/01/15 12:35:41;;;;;;;;;;;7.30;56.80;;;5.24;61.58;98845.88;12241433;19;19922;-85
2024/01/15 12:39:43;;;;;;;;;;;7.10;56.80;;;5.47;61.60;98901.31;12244979;19;19915;-86
2024/01/15 12:43:45;;;;;;;;;;;7.10;56.70;;;5.43;61.42;98875.75;12245167;19;19934;-86
2024/01/15 12:47:47;;;;;;;;;;;7.10;56.80;;;5.43;61.45;98896.47;12241580;19;19929;-86
2024/01/15 12:51:53;;;;;;;;;;;7.10;56.80;;;5.36;61.57;98877.88;12243474;19;20287;-86
2024/01/15 12:55:54;;;;;;;;;;;7.10;56.80;;;5.43;61.51;98893.88;12241968;19;20318;-85
2024/01/15 12:59:56;;;;;;;;;;;7.00;57.00;;;5.36;61.36;98874.47;12245405;19;19927;-86
2024/01/15 13:03:58;;;;;;;;;;;7.10;56.80;;;5.46;61.57;98920.38;12243794;19;19922;-86
2024/01/15 13:07:59;;;;;;;;;;;7.30;56.70;;;5.33;61.44;98901.38;12243482;19;19927;-86
2024/01/15 13:12:05;;;;;;;;;;;7.00;56.60;;;5.40;61.42;98925.09;12245016;19;20409;-86
2024/01/15 13:16:08;;;;;;;;;;;7.00;56.70;;;5.05;61.34;98878.97;12242443;19;20257;-85
2024/01/15 13:20:10;;;;;;;;;;;7.00;56.70;;;5.35;61.37;98925.41;12244335;19;19922;-85
2024/01/15 13:24:12;;;;;;;;;;;7.00;56.80;;;5.27;61.57;98918.13;12244676;19;19951;-86
2024/01/15 13:28:14;;;;;;;;;;;6.90;56.80;;;5.20;61.57;98909.06;12242244;19;19910;-86
2024/01/15 13:32:22;;;;;;;;;;;6.90;56.80;;;5.11;61.45;98899.31;12245755;19;19947;-86
2024/01/15 13:36:24;;;;;;;;;;;6.90;56.90;;;5.27;61.41;98915.53;12254475;19;19919;-86
2024/01/15 13:40:26;;;;;;;;;;;6.90;56.80;;;5.28;61.58;98930.13;12254615;19;19922;-86
2024/01/15 13:44:27;;;;;;;;;;;6.90;56.90;;;5.36;61.37;98946.94;12254748;19;19971;-86
2024/01/15 13:48:28;;;;;;;;;;;6.90;56.90;;;5.33;61.64;98948.78;12251851;19;19934;-85
2024/01/15 13:52:30;;;;;;;;;;;7.00;56.90;;;5.35;61.51;98943.53;12251398;19;20647;-86
2024/01/15 13:56:32;;;;;;;;;;;6.90;56.80;;;5.24;61.47;98936.44;12254737;19;19917;-86
2024/01/15 14:00:35;;;;;;;;;;;6.90;56.70;;;5.30;61.47;98951.56;12254263;19;20337;-89
2024/01/15 14:04:38;;;;;;;;;;;6.90;56.70;;;5.36;61.51;98965.06;12253678;19;19915;-86
2024/01/15 14:08:39;;;;;;;;;;;6.90;57.20;;;5.33;61.55;98955.72;12250281;19;19929;-86
2024/01/15 14:12:41;;;;;;;;;;;7.00;56.90;;;5.33;61.37;98979.00;12251065;19;19923;-86
2024/01/15 14:16:42;;;;;;;;;;;6.90;56.90;;;5.24;61.33;98964.06;12250182;19;19922;-86
2024/01/15 14:20:44;;;;;;;;;;;7.00;56.90;;;5.20;61.31;98965.16;12255279;19;19939;-86
2024/01/15 14:24:45;;;;;;;;;;;6.90;56.90;;;5.16;61.34;98974.88;12255545;19;19918;-86
2024/01/15 14:28:48;;;;;;;;;;;6.90;56.80;;;5.27;61.31;99000.09;12249913;19;20305;-86
2024/01/15 14:32:49;;;;;;;;;;;6.90;56.80;;;5.14;61.34;98991.44;12252108;19;19915;-86
2024/01/15 14:36:53;;;;;;;;;;;6.80;56.80;;;4.98;61.51;98961.31;12250418;19;19922;-86
2024/01/15 14:40:55;;;;;;;;;;;7.10;56.90;;;5.25;61.29;99009.72;12253619;19;20363;-86
2024/01/15 14:44:57;;;;;;;;;;;6.90;56.90;;;5.15;61.31;99006.00;12253503;19;20345;-86
2024/01/15 14:48:58;;;;;;;;;;;6.80;56.80;;;5.25;61.32;99030.41;12247489;19;19918;-86
2024/01/15 14:52:59;;;;;;;;;;;6.80;56.80;;;5.23;61.38;99040.03;12251755;19;19911;-86
2024/01/15 14:57:01;;;;;;;;;;;6.80;56.80;;;5.14;61.31;99032.81;12251041;19;19947;-86
2024/01/15 15:01:03;;;;;;;;;;;6.80;56.80;;;5.17;61.32;99038.63;12251206;19;19974;-85
2024/01/15 15:05:05;;;;;;;;;;;6.80;56.80;;;5.14;61.46;99046.59;12252257;19;19923;-86
2024/01/15 15:09:09;;;;;;;;;;;6.80;56.70;;;4.91;61.31;99019.47;12250887;19;19922;-85
2024/01/15 15:13:11;;;;;;;;;;;6.80;56.70;;;5.11;61.47;99054.53;12247523;19;19957;-85
2024/01/15 15:17:12;;;;;;;;;;;6.70;56.70;;;5.14;61.52;99056.09;12248007;19;19979;-85
2024/01/15 15:21:14;;;;;;;;;;;6.80;56.80;;;5.18;61.31;99063.56;12250540;19;20324;-85
2024/01/15 15:25:15;;;;;;;;;;;6.80;56.80;;;5.00;61.44;99036.25;12251119;19;19923;-85
2024/01/15 15:29:17;;;;;;;;;;;6.80;56.80;;;5.07;61.47;99060.78;12251856;19;19911;-85
2024/01/15 15:33:18;;;;;;;;;;;6.80;56.70;;;5.11;61.47;99080.41;12250065;19;19917;-85
2024/01/15 15:37:20;;;;;;;;;;;7.00;56.80;;;5.20;61.26;99103.13;12250875;19;19915;-84
2024/01/15 15:41:21;;;;;;;;;;;6.80;56.50;;;5.07;61.38;99078.91;12251768;19;19978;-84
2024/01/15 15:45:22;;;;;;;;;;;6.70;56.60;;;5.15;61.41;99105.16;12249960;19;19949;-84
2024/01/15 15:49:24;;;;;;;;;;;6.70;56.60;;;5.06;61.32;99093.59;12249847;19;19923;-85
2024/01/15 15:53:26;;;;;;;;;;;6.70;56.70;;;5.11;61.23;99101.09;12240004;19;19993;-85
2024/01/15 15:57:28;;;;;;;;;;;6.70;56.60;;;5.01;61.37;99095.63;12247954;19;19922;-84
2024/01/15 16:01:29;;;;;;;;;;;6.80;56.60;;;5.09;61.26;99114.13;12250792;19;19923;-84
2024/01/15 16:05:30;;;;;;;;;;;6.70;56.60;;;4.87;61.12;99087.84;12250773;19;19915;-84
2024/01/15 16:09:32;;;;;;;;;;;6.70;56.60;;;5.09;61.15;99137.41;12249038;19;20334;-84
2024/01/15 16:13:33;;;;;;;;;;;6.70;56.70;;;5.10;61.09;99141.66;12246291;19;20341;-84
2024/01/15 16:17:41;;;;;;;;;;;6.90;56.80;;;5.04;61.13;99120.47;12241796;19;20520;-84
2024/01/15 16:21:42;;;;;;;;;;;6.70;56.70;;;5.00;61.34;99134.53;12246040;19;19921;-85
2024/01/15 16:25:44;;;;;;;;;;;6.60;56.70;;;4.92;61.35;99137.56;12248360;19;19974;-85
2024/01/15 16:29:48;;;;;;;;;;;6.60;56.80;;;4.86;61.30;99145.66;12250981;19;19927;-84
2024/01/15 16:33:49;;;;;;;;;;;6.50;56.80;;;4.46;61.33;99092.81;12245693;19;19927;-85
2024/01/15 16:37:51;;;;;;;;;;;6.50;56.80;;;4.86;61.13;99162.03;12248381;19;19925;-85
2024/01/15 16:41:52;;;;;;;;;;;6.50;56.90;;;4.63;61.33;99126.28;12250170;19;19915;-84
2024/01/15 16:45:53;;;;;;;;;;;6.70;57.00;;;4.84;61.30;99174.19;12247790;19;19918;-84
2024/01/15 16:49:55;;;;;;;;;;;6.50;56.90;;;4.86;61.29;99180.13;12247300;19;19929;-84
2024/01/15 16:53:57;;;;;;;;;;;6.40;56.90;;;4.80;61.19;99180.44;12249548;19;19930;-84
2024/01/15 16:57:58;;;;;;;;;;;6.50;56.90;;;4.89;61.31;99194.63;12246201;19;19929;-85
2024/01/15 17:02:03;;;;;;;;;;;6.40;56.90;;;4.84;61.05;99200.06;12251000;19;20314;-85
2024/01/15 17:06:07;;;;;;;;;;;6.40;56.90;;;4.47;61.19;99146.16;12251943;19;20565;-84
2024/01/15 17:10:09;;;;;;;;;;;6.40;56.90;;;4.80;61.13;99211.47;12263444;19;19914;-85
2024/01/15 17:14:10;;;;;;;;;;;6.40;56.90;;;4.66;61.30;99185.56;12257634;19;19915;-85
2024/01/15 17:18:12;;;;;;;;;;;6.40;57.00;;;4.75;61.18;99218.69;12257971;19;20251;-84
2024/01/15 17:22:14;;;;;;;;;;;6.30;57.30;;;4.80;61.06;99226.16;12261431;19;19919;-84
2024/01/15 17:26:15;;;;;;;;;;;6.30;56.90;;;4.39;61.12;99173.25;12257631;19;20264;-84
2024/01/15 17:30:16;;;;;;;;;;;6.30;56.90;;;4.48;61.19;99190.00;12259293;19;19914;-85
2024/01/15 17:34:18;;;;;;;;;;;6.30;56.90;;;4.69;61.15;99226.75;12251446;19;20239;-84
2024/01/15 17:38:19;;;;;;;;;;;6.30;56.90;;;4.69;61.01;99228.53;12253819;19;19925;-84
2024/01/15 17:42:21;;;;;;;;;;;6.60;57.10;;;4.72;61.27;99242.09;12255699;19;19923;-85
2024/01/15 17:46:23;;;;;;;;;;;6.40;57.00;;;4.44;61.07;99204.00;12255092;19;19925;-85
2024/01/15 17:50:24;;;;;;;;;;;6.20;56.90;;;4.66;61.10;99242.44;12258446;19;19951;-84
2024/01/15 17:54:26;;;;;;;;;;;6.20;56.90;;;4.67;61.06;99246.69;12256467;19;19919;-85
2024/01/15 17:58:27;;;;;;;;;;;6.20;56.90;;;4.30;61.02;99201.34;12253742;19;20315;-84
2024/01/15 18:02:29;;;;;;;;;;;6.20;56.90;;;4.53;61.10;99241.44;12257099;19;19922;-85
2024/01/15 18:06:32;;;;;;;;;;;6.20;56.90;;;4.40;61.10;99226.63;12255653;19;19910;-84
2024/01/15 18:10:33;;;;;;;;;;;6.40;57.00;;;4.58;61.13;99263.53;12259055;19;19923;-85
2024/01/15 18:14:34;;;;;;;;;;;6.30;57.00;;;4.52;61.10;99256.13;12253855;19;19922;-85
2024/01/15 18:18:36;;;;;;;;;;;6.10;57.00;;;4.49;61.12;99255.47;12251129;19;19939;-85
2024/01/15 18:22:37;;;;;;;;;;;6.10;57.00;;;4.54;61.28;99256.88;12256789;19;19925;-85
2024/01/15 18:26:39;;;;;;;;;;;6.40;57.10;;;4.52;61.08;99255.28;12254808;19;19915;-85
2024/01/15 18:30:41;;;;;;;;;;;6.20;57.00;;;4.61;61.26;99273.72;12255189;19;20250;-84
2024/01/15 18:34:42;;;;;;;;;;;6.20;57.00;;;4.66;61.30;99288.97;12254077;19;20286;-85
2024/01/15 18:38:44;;;;;;;;;;;6.20;57.00;;;4.65;61.20;99302.84;12253185;19;19915;-85
2024/01/15 18:42:45;;;;;;;;;;;6.20;57.00;;;4.53;61.15;99277.63;12256108;19;19926;-86